ENGMENRY

Guest
Details From ENGM - Oslo Gardermoen
To ENRY - Rygge
Flight Number -
Tags Generated
Created
Modified
Stats Distance 49 nm / 90 km
Max Altitude 0 ft / 0 m
Waypoints 2
Social Downloads 6
Likes 0
Share VATSIM

Download

Looking for another format? Having issues loading an existing format? Contact us
Advertisement - Login to hide

Notes

Generated

Route

ENGM ENRY

ID Type Via Altitude Latitude Longitude Leg Dist Tot Dist Heading (true) Name
O ENGM APT - 0 ft / 0 m 60.17576˚ 11.10778˚ - 0 nm - -
O ENRY APT - 0 ft / 0 m 59.38374˚ 10.76625˚ 48 nm 48 nm 192° / 192° -

Altitude Profile

Advertisement - Login to hide

ENGM

Details ICAO ENGM (OSL)
Name Oslo Gardermoen
Region Norway
Timezone Europe/Oslo (UTC+2.0)
Stats Elevation 681 ft / 208 m (AMSL)
Location 60.194507° 11.098998°
Runways 2
Magnetic Variation 3.459° E

METAR

ENGM 201950Z 19008KT CAVOK 15/07 Q1024 NOSIG

Decode

TAF

TAF ENGM 201700Z 2018/2118 20015KT CAVOK BECMG 2019/2021 18005KT

Decode

Departure Runways

ID Width Length Bearing (true) Bearing (mag) Surface Threshold Offset Overrun Length
01L 148 ft / 45 m 12,144 ft / 3,702 m 15.89° 12.43° Concrete 0 ft / 0 m 499 ft / 152 m
01R 148 ft / 45 m 10,014 ft / 3,052 m 15.89° 12.43° Concrete 0 ft / 0 m 499 ft / 152 m
19L 148 ft / 45 m 10,014 ft / 3,052 m 195.91° 192.45° Concrete 0 ft / 0 m 466 ft / 142 m
19R 148 ft / 45 m 12,144 ft / 3,702 m 195.91° 192.45° Concrete 0 ft / 0 m 482 ft / 147 m

ENRY

Details ICAO ENRY (RYG)
Name RYGGE
Region Norway
Timezone Europe/Oslo (UTC+2.0)
Stats Elevation 174 ft / 53 m (AMSL)
Location 59.378793° 10.785426°
Runways 1
Magnetic Variation 3.290° E

METAR

ENRY 201950Z AUTO 18008KT 9999NDV NCD 14/11 Q1026

Decode

TAF

TAF TAF ENRY 201700Z 2018/2118 20012KT CAVOK BECMG 2022/2024 VRB03KT

Decode

Destination Runways

ID Width Length Bearing (true) Bearing (mag) Surface Threshold Offset Overrun Length
12 148 ft / 45 m 7,990 ft / 2,435 m 116.83° 113.54° Asphalt 0 ft / 0 m 898 ft / 274 m
30 148 ft / 45 m 7,990 ft / 2,435 m 296.86° 293.57° Asphalt 0 ft / 0 m 898 ft / 274 m

Approach Navaids

Runway Type Ident Frequency Range Bearing (true) Bearing (mag) Slope Elevation
30 Localiser RY 109.10 MHz 18 nm / 33 km 296.79° 293.50° - 173 ft / 53 m (AMSL)
30 Glidescope RY 109.10 MHz 10 nm / 19 km 296.84° 293.55° 3.10° 217 ft / 66 m (AMSL)
30 DME RY 109.10 MHz 18 nm / 33 km - - - 174 ft / 53 m (AMSL)

Popular Alternatives